Cove City, North Carolina
Current Conditions -  °F | °C
As of 7:54 AM on Thursday 23 Oct 2014 (Local Time) from KEWN Reporting Station
Clear Clear  
Wind Chill: 50°   Ceiling: Unl
Heat Index: 50°   Visibility: 10mi
Dew Point: 43°   Wind: 9mph
Humidity: 77%   Direction: 290°WNW
Pressure: 30"   Gusts: NA
Location:  35.19°N, 77.32°W
Report Text: KEWN 231154Z 29008KT 10SM CLR 10/06 A3000 RMK AO2 SLP158 T01000061 10133 20100 53007
Loading
Personal Weather Stations






























Interactive Weather Map
Tropical Storm Tracking
New forecast layout! Learn more

10-Day Weather Forecast

Advertisements
Track Severe Weather on mobile